createdAt,value
2023-02-06T00:01:48.632Z,20.00
2023-02-06T00:08:15.383Z,18.20
2023-02-06T00:10:44.460Z,20.60
2023-02-06T00:13:13.448Z,22.00
2023-02-06T00:15:41.954Z,21.30
2023-02-06T00:18:10.367Z,19.20
2023-02-06T00:20:39.591Z,22.20
2023-02-06T00:23:08.516Z,22.30
2023-02-06T00:25:36.991Z,21.10
2023-02-06T00:28:05.645Z,23.20
2023-02-06T00:30:34.670Z,21.30
2023-02-06T00:33:03.049Z,20.40
2023-02-06T00:35:31.141Z,21.60
2023-02-06T00:38:00.315Z,21.00
2023-02-06T00:40:29.483Z,22.00
2023-02-06T00:42:58.126Z,22.00
2023-02-06T00:45:26.214Z,21.90
2023-02-06T00:47:55.118Z,19.10
2023-02-06T00:50:23.340Z,19.70
2023-02-06T00:52:51.542Z,19.00
2023-02-06T00:55:19.617Z,18.30
2023-02-06T00:57:47.662Z,20.80
2023-02-06T01:00:16.087Z,20.70
2023-02-06T01:02:44.536Z,21.60
2023-02-06T01:05:12.823Z,20.70
2023-02-06T01:07:42.656Z,20.90
2023-02-06T01:10:11.013Z,21.20
2023-02-06T01:12:41.043Z,22.10
2023-02-06T01:15:10.665Z,20.90
2023-02-06T01:17:39.487Z,22.00
2023-02-06T01:20:09.871Z,21.40
2023-02-06T01:22:38.341Z,22.30
2023-02-06T01:25:06.929Z,23.50
2023-02-06T01:27:37.003Z,22.30
2023-02-06T01:30:06.509Z,21.20
2023-02-06T01:32:38.343Z,20.60
2023-02-06T01:35:07.354Z,20.10
2023-02-06T01:37:38.293Z,20.60
2023-02-06T01:40:13.085Z,21.60
2023-02-06T01:42:42.354Z,24.40
2023-02-06T01:45:25.922Z,20.10
2023-02-06T01:48:03.485Z,19.50
2023-02-06T01:50:31.958Z,22.10
2023-02-06T01:53:00.191Z,21.20
2023-02-06T01:55:28.397Z,20.40
2023-02-06T01:57:56.488Z,23.10
2023-02-06T02:00:24.653Z,19.10
2023-02-06T02:02:52.833Z,20.20
2023-02-06T02:05:22.910Z,23.00
2023-02-06T02:08:01.167Z,20.20
2023-02-06T02:10:30.248Z,23.50
2023-02-06T02:13:00.832Z,20.40
2023-02-06T02:15:40.177Z,21.40
2023-02-06T02:18:16.754Z,23.70
2023-02-06T02:20:56.059Z,20.70
2023-02-06T02:24:02.705Z,21.10
2023-02-06T02:26:40.056Z,21.90
2023-02-06T02:29:29.380Z,21.50
2023-02-06T02:32:04.048Z,24.30
2023-02-06T02:35:00.039Z,22.10
2023-02-06T02:37:40.832Z,19.10
2023-02-06T02:40:40.087Z,19.10
2023-02-06T02:43:30.122Z,21.30
2023-02-06T02:46:17.674Z,21.60
2023-02-06T02:48:47.088Z,22.10
2023-02-06T02:51:15.359Z,21.20
2023-02-06T02:53:43.574Z,20.70
2023-02-06T02:56:21.427Z,20.60
2023-02-06T02:58:55.618Z,22.60
2023-02-06T03:01:28.150Z,21.40
2023-02-06T03:03:56.565Z,20.40
2023-02-06T03:06:30.222Z,16.50
2023-02-06T03:09:26.510Z,19.50
2023-02-06T03:12:10.663Z,21.40
2023-02-06T03:14:46.463Z,18.40
2023-02-06T03:17:16.656Z,16.20
2023-02-06T03:19:48.637Z,17.30
2023-02-06T03:22:16.783Z,18.90
2023-02-06T03:24:44.829Z,20.40
2023-02-06T03:27:14.986Z,19.20
2023-02-06T03:29:43.532Z,21.50
2023-02-06T03:32:17.572Z,21.50
2023-02-06T03:35:05.804Z,23.90
2023-02-06T03:37:34.563Z,23.80
2023-02-06T03:40:22.568Z,22.80
2023-02-06T03:42:53.035Z,24.70
2023-02-06T03:45:36.495Z,24.40
2023-02-06T03:48:09.238Z,21.00
2023-02-06T03:50:38.228Z,24.00
2023-02-06T03:53:07.329Z,25.60
2023-02-06T03:55:36.397Z,26.40
2023-02-06T03:58:09.335Z,26.00
2023-02-06T04:00:37.519Z,25.10
2023-02-06T04:03:05.662Z,22.10
2023-02-06T04:05:34.309Z,31.40
2023-02-06T04:08:02.851Z,26.10
2023-02-06T04:10:32.334Z,25.90
2023-02-06T04:13:01.622Z,26.40
2023-02-06T04:15:30.217Z,29.50
2023-02-06T04:18:00.940Z,24.20
2023-02-06T04:20:29.941Z,24.10
2023-02-06T04:22:58.932Z,27.80
2023-02-06T04:25:27.138Z,27.20
2023-02-06T04:27:56.134Z,23.10
2023-02-06T04:30:24.362Z,25.20
2023-02-06T04:32:53.159Z,21.90
2023-02-06T04:35:21.301Z,26.00
2023-02-06T04:37:49.736Z,23.60
2023-02-06T04:40:18.192Z,26.70
2023-02-06T04:42:47.236Z,27.60
2023-02-06T04:45:15.554Z,20.90
2023-02-06T04:47:43.716Z,21.90
2023-02-06T04:50:12.541Z,21.40
2023-02-06T04:52:40.806Z,23.20
2023-02-06T04:55:09.213Z,24.50
2023-02-06T04:57:38.057Z,22.80
2023-02-06T05:00:06.979Z,20.50
2023-02-06T05:02:39.781Z,22.40
2023-02-06T05:05:08.783Z,19.70
2023-02-06T05:07:38.576Z,25.70
2023-02-06T05:10:09.073Z,21.10
2023-02-06T05:12:39.471Z,20.70
2023-02-06T05:15:08.170Z,19.80
2023-02-06T05:17:36.566Z,22.20
2023-02-06T05:20:05.623Z,20.30
2023-02-06T05:22:33.904Z,18.60
2023-02-06T05:25:02.045Z,20.20
2023-02-06T05:27:30.493Z,17.90
2023-02-06T05:29:58.618Z,19.90
2023-02-06T05:32:26.708Z,17.30
2023-02-06T05:34:54.970Z,19.00
2023-02-06T05:37:23.099Z,18.00
2023-02-06T05:39:51.306Z,21.10
2023-02-06T05:42:19.545Z,20.30
2023-02-06T05:44:47.709Z,18.80
2023-02-06T05:47:15.837Z,22.20
2023-02-06T05:49:44.291Z,18.30
2023-02-06T05:52:12.402Z,20.00
2023-02-06T05:54:41.139Z,18.80
2023-02-06T05:57:09.431Z,19.30
2023-02-06T05:59:37.691Z,18.50
2023-02-06T06:02:06.132Z,19.30
2023-02-06T06:04:34.505Z,18.20
2023-02-06T06:07:02.663Z,19.40
2023-02-06T06:09:31.118Z,22.30
2023-02-06T06:12:02.056Z,24.50
2023-02-06T06:14:31.341Z,18.50
2023-02-06T06:17:00.366Z,21.40
2023-02-06T06:19:28.551Z,22.60
2023-02-06T06:21:58.236Z,24.00
2023-02-06T06:24:26.712Z,20.90
2023-02-06T06:26:56.512Z,18.20
2023-02-06T06:29:25.404Z,18.00
2023-02-06T06:31:53.789Z,20.60
2023-02-06T06:34:22.494Z,19.00
2023-02-06T06:36:50.874Z,18.90
2023-02-06T10:37:52.001Z,14.10
2023-02-06T10:40:26.215Z,13.90
2023-02-06T10:43:19.242Z,14.20
2023-02-06T10:46:05.908Z,11.10
2023-02-06T10:48:44.589Z,11.70
2023-02-06T10:51:22.529Z,10.10
2023-02-06T10:53:56.489Z,11.80
2023-02-06T10:56:49.684Z,11.30
2023-02-06T10:59:22.432Z,13.40
2023-02-06T11:02:05.889Z,11.70
2023-02-06T11:04:39.671Z,13.80
2023-02-06T11:07:12.842Z,13.50
2023-02-06T11:09:41.285Z,12.20
2023-02-06T11:12:24.479Z,11.50
2023-02-06T11:14:52.762Z,12.00
2023-02-06T11:17:22.727Z,12.20
2023-02-06T11:19:51.990Z,12.20
2023-02-06T11:22:28.668Z,11.30
2023-02-06T11:25:08.084Z,10.90
2023-02-06T11:27:36.563Z,11.50
2023-02-06T11:30:29.645Z,11.10
2023-02-06T11:33:04.699Z,12.60
2023-02-06T11:35:36.633Z,12.70
2023-02-06T11:38:17.326Z,12.30
2023-02-06T11:41:00.859Z,12.20
2023-02-06T11:43:33.955Z,11.50
2023-02-06T11:46:08.449Z,12.70
2023-02-06T11:48:37.788Z,11.70
2023-02-06T11:51:06.497Z,12.10
2023-02-06T11:53:35.565Z,12.30
2023-02-06T11:56:17.945Z,11.00
2023-02-06T11:58:47.774Z,14.50
2023-02-06T12:01:20.598Z,12.80
2023-02-06T12:03:55.315Z,11.00
2023-02-06T12:06:36.205Z,11.70
2023-02-06T12:09:09.780Z,11.30
2023-02-06T12:12:08.372Z,14.20
2023-02-06T12:14:40.684Z,10.60
2023-02-06T12:17:32.095Z,12.00
2023-02-06T12:20:06.463Z,11.00
2023-02-06T12:22:39.436Z,10.40
2023-02-06T12:25:25.450Z,14.70
2023-02-06T12:27:57.136Z,9.60
2023-02-06T12:30:48.257Z,9.30
2023-02-06T12:33:40.972Z,11.30
2023-02-06T12:36:17.571Z,9.70
2023-02-06T12:38:57.190Z,11.30
2023-02-06T12:41:47.492Z,10.70
2023-02-06T12:44:42.280Z,9.60
2023-02-06T12:47:25.692Z,9.20
2023-02-06T12:50:04.151Z,9.30
2023-02-06T12:52:45.821Z,10.30
2023-02-06T12:55:28.637Z,9.00
2023-02-06T12:57:58.185Z,8.10
2023-02-06T13:00:55.274Z,7.10
2023-02-06T13:03:43.941Z,7.40
2023-02-06T13:06:22.280Z,8.80
2023-02-06T13:08:57.634Z,9.50
2023-02-06T13:11:35.146Z,8.10
2023-02-06T13:14:18.369Z,8.30
2023-02-06T13:17:11.920Z,7.90
2023-02-06T13:19:40.709Z,8.70
2023-02-06T13:22:10.943Z,7.70
2023-02-06T13:24:46.427Z,8.20
2023-02-06T13:27:24.958Z,9.80
2023-02-06T13:29:54.236Z,9.20
2023-02-06T13:32:22.862Z,11.40
2023-02-06T13:34:53.935Z,12.30
2023-02-06T13:37:35.150Z,9.80
2023-02-06T13:40:26.730Z,9.60
2023-02-06T13:43:14.015Z,8.40
2023-02-06T13:45:49.433Z,7.10
2023-02-06T13:48:41.137Z,11.00
2023-02-06T13:51:17.046Z,10.90
2023-02-06T13:54:24.516Z,11.40
2023-02-06T13:57:23.293Z,10.20
2023-02-06T13:59:58.615Z,12.10
2023-02-06T14:02:34.147Z,12.80
2023-02-06T14:05:04.249Z,10.40
2023-02-06T14:07:32.416Z,9.90
2023-02-06T14:10:24.030Z,10.40
2023-02-06T14:13:28.705Z,12.80
2023-02-06T14:16:15.803Z,11.90
2023-02-06T14:18:49.633Z,11.70
2023-02-06T14:21:39.356Z,10.50
2023-02-06T14:24:31.769Z,13.60
2023-02-06T14:27:03.375Z,9.80
2023-02-06T14:32:47.859Z,14.10
2023-02-06T14:35:20.644Z,10.70
2023-02-06T14:38:10.037Z,13.50
2023-02-06T14:40:42.671Z,12.60
2023-02-06T14:43:15.147Z,14.10
2023-02-06T14:46:04.169Z,12.00
2023-02-06T14:48:52.401Z,11.90
2023-02-06T14:51:26.842Z,11.40
2023-02-06T14:53:57.690Z,10.70
2023-02-06T14:56:36.835Z,13.20
2023-02-06T14:59:23.585Z,10.40
2023-02-06T15:01:53.465Z,10.80
2023-02-06T15:04:23.048Z,10.30
2023-02-06T15:06:53.450Z,11.80
2023-02-06T15:09:27.598Z,8.80
2023-02-06T15:12:26.826Z,8.70
2023-02-06T15:15:05.444Z,9.60
2023-02-06T15:17:34.601Z,8.90
2023-02-06T15:20:24.281Z,9.90
2023-02-06T15:22:54.289Z,11.20
2023-02-06T15:25:32.469Z,9.50
2023-02-06T15:28:07.810Z,8.40
2023-02-06T15:30:37.632Z,10.80
2023-02-06T15:33:09.201Z,15.40
2023-02-06T15:35:41.235Z,7.20
2023-02-06T15:40:46.435Z,11.50
2023-02-06T15:43:24.667Z,8.00
2023-02-06T15:45:57.669Z,9.80
2023-02-06T15:48:28.984Z,9.20
2023-02-06T15:50:59.650Z,8.80
2023-02-06T15:53:48.332Z,8.70
2023-02-06T15:56:21.093Z,8.10
2023-02-06T15:58:50.050Z,7.60
2023-02-06T16:01:19.781Z,11.10
2023-02-06T16:03:53.390Z,10.50
2023-02-06T16:06:22.367Z,8.60
2023-02-06T16:08:54.593Z,12.00
2023-02-06T19:30:19.443Z,19.20
2023-02-06T19:32:48.831Z,20.20
2023-02-06T19:35:17.416Z,18.50
2023-02-06T19:37:45.687Z,24.90
2023-02-06T19:40:14.199Z,19.50
2023-02-06T19:42:42.745Z,16.60
2023-02-06T19:45:11.241Z,17.00
2023-02-06T19:47:41.052Z,15.10
2023-02-06T19:50:10.829Z,18.40
2023-02-06T19:52:40.529Z,15.60
2023-02-06T19:55:08.929Z,17.00
2023-02-06T19:57:39.599Z,18.50
2023-02-06T20:00:08.574Z,19.50
2023-02-06T20:02:39.191Z,17.20
2023-02-06T20:05:07.942Z,19.60
2023-02-06T20:07:36.381Z,15.70
2023-02-06T20:10:05.447Z,15.40
2023-02-06T20:12:36.274Z,20.40
2023-02-06T20:15:04.651Z,17.80
2023-02-06T20:17:32.952Z,17.80
2023-02-06T20:20:01.534Z,17.10
2023-02-06T20:22:30.189Z,19.40
2023-02-06T20:24:59.066Z,17.00
2023-02-06T20:27:27.717Z,21.50
2023-02-06T20:29:56.148Z,20.10
2023-02-06T20:32:24.574Z,20.60
2023-02-06T20:34:52.873Z,23.30
2023-02-06T20:37:21.581Z,25.60
2023-02-06T20:39:49.888Z,23.10
2023-02-06T20:42:19.620Z,21.40
2023-02-06T20:44:49.508Z,20.70
2023-02-06T20:47:17.947Z,17.50
2023-02-06T20:49:46.803Z,21.80
2023-02-06T20:52:15.089Z,20.90
2023-02-06T20:54:43.830Z,22.60
2023-02-06T20:57:12.196Z,21.10
2023-02-06T20:59:40.643Z,20.40
2023-02-06T21:02:10.719Z,24.00
2023-02-06T21:04:39.386Z,24.60
2023-02-06T21:07:07.703Z,29.90
2023-02-06T21:09:36.624Z,23.00
2023-02-06T21:12:05.185Z,22.70
2023-02-06T21:14:35.332Z,20.90
2023-02-06T21:17:03.549Z,21.80
2023-02-06T21:19:31.767Z,25.00
2023-02-06T21:22:00.907Z,22.90
2023-02-06T21:24:29.597Z,20.20
2023-02-06T21:26:57.852Z,26.10
2023-02-06T21:29:26.233Z,23.60
2023-02-06T21:32:07.449Z,25.70
2023-02-06T21:34:41.190Z,28.10
2023-02-06T21:37:09.667Z,20.70
2023-02-06T21:39:38.983Z,21.40
2023-02-06T21:42:10.770Z,25.40
2023-02-06T21:44:39.520Z,21.50
2023-02-06T21:47:10.044Z,24.60
2023-02-06T21:49:40.418Z,24.80
2023-02-06T21:52:08.852Z,24.50
2023-02-06T21:54:38.089Z,23.10
2023-02-06T21:57:06.509Z,20.00
2023-02-06T21:59:36.650Z,19.50
2023-02-06T22:02:05.223Z,22.00
2023-02-06T22:04:33.645Z,18.90
2023-02-06T22:07:02.211Z,21.90
2023-02-06T22:09:30.588Z,19.60
2023-02-06T22:11:58.845Z,22.40
2023-02-06T22:14:28.992Z,19.80
2023-02-06T22:17:00.769Z,20.90
2023-02-06T22:19:29.461Z,22.00
2023-02-06T22:24:29.976Z,25.10
2023-02-06T22:26:58.166Z,18.10
2023-02-06T22:29:26.345Z,20.20
2023-02-06T22:31:54.799Z,20.50
2023-02-06T22:34:23.081Z,21.90
2023-02-06T22:36:54.390Z,26.10
2023-02-06T22:39:22.736Z,21.20
2023-02-06T22:41:51.294Z,25.40
2023-02-06T22:44:20.336Z,20.30
2023-02-06T22:46:52.440Z,20.10
2023-02-06T22:49:21.713Z,18.50
2023-02-06T22:51:50.440Z,23.20
2023-02-06T22:54:18.965Z,20.40
2023-02-06T22:56:47.084Z,20.40
2023-02-06T22:59:17.562Z,20.00
2023-02-06T23:01:55.382Z,22.90
2023-02-06T23:04:28.819Z,20.90
2023-02-06T23:06:57.886Z,26.60
2023-02-06T23:09:28.389Z,22.50
2023-02-06T23:12:01.361Z,23.50
2023-02-06T23:14:31.768Z,21.20
2023-02-06T23:17:00.385Z,20.60
2023-02-06T23:19:29.303Z,23.20
2023-02-06T23:21:57.649Z,20.20
2023-02-06T23:24:25.881Z,19.50
2023-02-06T23:26:54.544Z,21.90
2023-02-06T23:29:23.506Z,18.30
2023-02-06T23:31:51.856Z,17.90
2023-02-06T23:34:23.739Z,19.40
2023-02-06T23:36:56.085Z,22.80
2023-02-06T23:39:24.498Z,21.00
2023-02-06T23:41:53.176Z,25.50
2023-02-06T23:44:21.390Z,20.80
2023-02-06T23:46:49.589Z,20.00
2023-02-06T23:49:18.781Z,19.70
2023-02-06T23:51:47.360Z,18.00
2023-02-06T23:54:15.705Z,21.10
2023-02-06T23:56:46.452Z,21.10
2023-02-06T23:59:14.736Z,22.00
